sensor_id;sensor_type;location;lat;lon;timestamp;pressure;altitude;pressure_sealevel;temperature;humidity
13241;BME280;6687;47.790;7.322;2022-07-29T05:16:57;98739.63;;;23.52;41.33
13241;BME280;6687;47.790;7.322;2022-07-29T05:19:24;98739.16;;;23.59;41.31
13241;BME280;6687;47.790;7.322;2022-07-29T05:21:50;98739.09;;;23.61;41.20
13241;BME280;6687;47.790;7.322;2022-07-29T05:24:17;98736.38;;;23.62;41.11
13241;BME280;6687;47.790;7.322;2022-07-29T05:26:44;98735.44;;;23.79;40.81
13241;BME280;6687;47.790;7.322;2022-07-29T05:29:10;98735.38;;;23.81;40.69
13241;BME280;6687;47.790;7.322;2022-07-29T05:31:37;98734.84;;;23.90;40.33
13241;BME280;6687;47.790;7.322;2022-07-29T05:34:05;98734.53;;;23.80;41.02
13241;BME280;6687;47.790;7.322;2022-07-29T05:36:32;98735.34;;;23.97;40.47
13241;BME280;6687;47.790;7.322;2022-07-29T05:38:58;98737.06;;;23.98;40.54
13241;BME280;6687;47.790;7.322;2022-07-29T05:41:25;98735.88;;;24.04;40.38
13241;BME280;6687;47.790;7.322;2022-07-29T05:43:52;98734.16;;;24.02;40.71
13241;BME280;6687;47.790;7.322;2022-07-29T05:46:19;98738.94;;;24.12;40.64
13241;BME280;6687;47.790;7.322;2022-07-29T05:48:45;98741.28;;;24.32;39.85
13241;BME280;6687;47.790;7.322;2022-07-29T05:51:13;98738.06;;;24.11;40.85
13241;BME280;6687;47.790;7.322;2022-07-29T05:53:40;98747.84;;;24.25;40.61
13241;BME280;6687;47.790;7.322;2022-07-29T05:56:07;98749.84;;;24.21;40.87
13241;BME280;6687;47.790;7.322;2022-07-29T05:58:33;98761.59;;;24.01;40.83
13241;BME280;6687;47.790;7.322;2022-07-29T06:01:00;98760.38;;;23.91;42.57
13241;BME280;6687;47.790;7.322;2022-07-29T06:03:27;98773.16;;;24.15;41.14
13241;BME280;6687;47.790;7.322;2022-07-29T06:05:54;98761.13;;;23.93;42.67
13241;BME280;6687;47.790;7.322;2022-07-29T06:08:22;98766.63;;;23.90;42.59
13241;BME280;6687;47.790;7.322;2022-07-29T06:10:49;98780.31;;;24.29;40.44
13241;BME280;6687;47.790;7.322;2022-07-29T06:13:15;98772.03;;;24.19;41.43
13241;BME280;6687;47.790;7.322;2022-07-29T06:15:42;98773.59;;;23.91;43.11
13241;BME280;6687;47.790;7.322;2022-07-29T06:18:09;98772.97;;;24.34;40.36
13241;BME280;6687;47.790;7.322;2022-07-29T06:20:36;98771.34;;;24.47;39.65
13241;BME280;6687;47.790;7.322;2022-07-29T06:23:02;98775.59;;;24.50;40.31
13241;BME280;6687;47.790;7.322;2022-07-29T06:25:31;98776.69;;;24.61;39.95
13241;BME280;6687;47.790;7.322;2022-07-29T06:28:00;98788.47;;;24.72;39.13
13241;BME280;6687;47.790;7.322;2022-07-29T06:30:26;98788.47;;;24.72;39.58
13241;BME280;6687;47.790;7.322;2022-07-29T06:32:53;98788.69;;;24.83;38.79
13241;BME280;6687;47.790;7.322;2022-07-29T06:35:20;98792.94;;;24.86;38.84
13241;BME280;6687;47.790;7.322;2022-07-29T06:37:47;98801.81;;;24.85;39.80
13241;BME280;6687;47.790;7.322;2022-07-29T06:40:14;98798.56;;;24.95;39.20
13241;BME280;6687;47.790;7.322;2022-07-29T06:43:00;98799.69;;;25.06;38.79
13241;BME280;6687;47.790;7.322;2022-07-29T06:45:26;98800.34;;;24.95;39.24
13241;BME280;6687;47.790;7.322;2022-07-29T06:47:53;98807.19;;;25.13;38.44
13241;BME280;6687;47.790;7.322;2022-07-29T06:50:20;98804.53;;;25.13;38.80
13241;BME280;6687;47.790;7.322;2022-07-29T06:52:47;98798.69;;;25.23;39.07
13241;BME280;6687;47.790;7.322;2022-07-29T06:55:13;98816.31;;;25.24;38.41
13241;BME280;6687;47.790;7.322;2022-07-29T06:57:40;98817.09;;;25.40;38.19
13241;BME280;6687;47.790;7.322;2022-07-29T07:00:09;98822.03;;;25.60;37.44
13241;BME280;6687;47.790;7.322;2022-07-29T07:02:36;98816.78;;;25.73;37.49
13241;BME280;6687;47.790;7.322;2022-07-29T07:05:04;98823.53;;;25.65;38.67
13241;BME280;6687;47.790;7.322;2022-07-29T07:07:31;98829.78;;;25.78;37.72
13241;BME280;6687;47.790;7.322;2022-07-29T07:09:58;98831.69;;;25.47;39.49
13241;BME280;6687;47.790;7.322;2022-07-29T07:12:24;98838.13;;;25.72;38.03
13241;BME280;6687;47.790;7.322;2022-07-29T07:14:51;98838.22;;;25.85;37.86
13241;BME280;6687;47.790;7.322;2022-07-29T07:17:19;98843.94;;;25.93;37.20
13241;BME280;6687;47.790;7.322;2022-07-29T07:19:46;98844.47;;;25.84;38.20
13241;BME280;6687;47.790;7.322;2022-07-29T07:22:12;98844.75;;;25.50;39.12
13241;BME280;6687;47.790;7.322;2022-07-29T07:24:39;98843.53;;;25.70;39.10
13241;BME280;6687;47.790;7.322;2022-07-29T07:27:06;98848.19;;;25.81;38.37
13241;BME280;6687;47.790;7.322;2022-07-29T07:29:32;98852.03;;;26.04;37.94
13241;BME280;6687;47.790;7.322;2022-07-29T07:31:59;98845.72;;;26.07;37.44
13241;BME280;6687;47.790;7.322;2022-07-29T07:34:27;98840.19;;;26.10;37.18
13241;BME280;6687;47.790;7.322;2022-07-29T07:36:55;98835.09;;;26.07;38.66
13241;BME280;6687;47.790;7.322;2022-07-29T07:39:21;98834.75;;;26.26;38.12
13241;BME280;6687;47.790;7.322;2022-07-29T07:41:48;98837.75;;;26.34;37.47
13241;BME280;6687;47.790;7.322;2022-07-29T07:44:15;98834.84;;;26.51;36.44
13241;BME280;6687;47.790;7.322;2022-07-29T07:46:42;98844.06;;;26.60;37.65
13241;BME280;6687;47.790;7.322;2022-07-29T07:49:10;98842.19;;;26.75;37.10
13241;BME280;6687;47.790;7.322;2022-07-29T07:51:38;98830.53;;;26.90;36.22
13241;BME280;6687;47.790;7.322;2022-07-29T07:54:05;98837.16;;;27.10;35.76
13241;BME280;6687;47.790;7.322;2022-07-29T07:56:31;98829.50;;;27.18;35.79
13241;BME280;6687;47.790;7.322;2022-07-29T07:58:58;98830.47;;;27.43;36.00
13241;BME280;6687;47.790;7.322;2022-07-29T08:01:25;98835.72;;;27.32;35.81
13241;BME280;6687;47.790;7.322;2022-07-29T08:03:51;98830.16;;;27.61;35.06
13241;BME280;6687;47.790;7.322;2022-07-29T08:06:18;98826.75;;;27.58;36.29
13241;BME280;6687;47.790;7.322;2022-07-29T08:08:46;98833.44;;;27.90;36.39
13241;BME280;6687;47.790;7.322;2022-07-29T08:11:13;98837.53;;;28.07;34.60
13241;BME280;6687;47.790;7.322;2022-07-29T08:13:39;98833.22;;;28.17;34.19
13241;BME280;6687;47.790;7.322;2022-07-29T08:16:07;98829.06;;;28.50;33.86
13241;BME280;6687;47.790;7.322;2022-07-29T08:18:41;98841.75;;;28.59;33.81
13241;BME280;6687;47.790;7.322;2022-07-29T08:21:08;98832.63;;;28.86;33.26
13241;BME280;6687;47.790;7.322;2022-07-29T08:23:35;98837.22;;;28.84;32.97
13241;BME280;6687;47.790;7.322;2022-07-29T08:26:06;98837.50;;;28.92;32.75
13241;BME280;6687;47.790;7.322;2022-07-29T08:28:36;98852.56;;;28.93;33.04
13241;BME280;6687;47.790;7.322;2022-07-29T08:31:03;98853.28;;;28.95;33.33
13241;BME280;6687;47.790;7.322;2022-07-29T08:33:30;98850.00;;;29.03;33.16
13241;BME280;6687;47.790;7.322;2022-07-29T08:35:57;98845.84;;;29.11;32.99
13241;BME280;6687;47.790;7.322;2022-07-29T08:38:24;98855.97;;;29.06;32.75
13241;BME280;6687;47.790;7.322;2022-07-29T08:40:51;98846.13;;;29.31;32.82
13241;BME280;6687;47.790;7.322;2022-07-29T08:43:19;98850.00;;;29.27;32.83
13241;BME280;6687;47.790;7.322;2022-07-29T08:45:48;98842.00;;;29.38;32.37
13241;BME280;6687;47.790;7.322;2022-07-29T08:48:17;98850.22;;;29.24;32.72
13241;BME280;6687;47.790;7.322;2022-07-29T08:50:45;98850.59;;;29.19;33.57
13241;BME280;6687;47.790;7.322;2022-07-29T08:53:13;98845.25;;;29.30;33.43
13241;BME280;6687;47.790;7.322;2022-07-29T08:55:42;98847.72;;;29.56;32.17
13241;BME280;6687;47.790;7.322;2022-07-29T08:58:09;98842.75;;;29.63;32.11
13241;BME280;6687;47.790;7.322;2022-07-29T09:00:42;98856.56;;;29.34;32.42
13241;BME280;6687;47.790;7.322;2022-07-29T09:03:12;98842.03;;;29.61;32.27
13241;BME280;6687;47.790;7.322;2022-07-29T09:05:41;98843.69;;;29.50;32.61
13241;BME280;6687;47.790;7.322;2022-07-29T09:08:08;98835.94;;;29.70;32.28
13241;BME280;6687;47.790;7.322;2022-07-29T09:10:36;98845.66;;;29.60;32.58
13241;BME280;6687;47.790;7.322;2022-07-29T09:13:03;98850.28;;;30.03;32.34
13241;BME280;6687;47.790;7.322;2022-07-29T09:15:30;98851.16;;;29.81;32.71
13241;BME280;6687;47.790;7.322;2022-07-29T09:17:58;98852.69;;;30.06;31.94
13241;BME280;6687;47.790;7.322;2022-07-29T09:20:25;98854.03;;;30.23;31.72
13241;BME280;6687;47.790;7.322;2022-07-29T09:23:13;98856.59;;;30.24;33.12
13241;BME280;6687;47.790;7.322;2022-07-29T09:25:40;98860.56;;;30.41;31.63
13241;BME280;6687;47.790;7.322;2022-07-29T09:28:08;98864.78;;;30.55;31.76
13241;BME280;6687;47.790;7.322;2022-07-29T09:30:35;98863.81;;;30.56;32.13
13241;BME280;6687;47.790;7.322;2022-07-29T09:33:03;98865.03;;;30.52;30.77
13241;BME280;6687;47.790;7.322;2022-07-29T09:35:30;98861.56;;;30.72;31.00
13241;BME280;6687;47.790;7.322;2022-07-29T09:37:57;98856.44;;;30.69;30.96
13241;BME280;6687;47.790;7.322;2022-07-29T09:40:35;98854.66;;;30.70;31.57
13241;BME280;6687;47.790;7.322;2022-07-29T09:43:09;98856.91;;;30.86;30.40
13241;BME280;6687;47.790;7.322;2022-07-29T09:45:36;98843.47;;;30.97;30.57
13241;BME280;6687;47.790;7.322;2022-07-29T09:48:14;98845.25;;;31.08;31.49
13241;BME280;6687;47.790;7.322;2022-07-29T09:50:44;98858.19;;;31.24;30.25
13241;BME280;6687;47.790;7.322;2022-07-29T09:53:12;98851.63;;;31.38;30.67
13241;BME280;6687;47.790;7.322;2022-07-29T09:55:55;98853.78;;;31.23;31.40
13241;BME280;6687;47.790;7.322;2022-07-29T09:58:22;98862.47;;;31.36;29.68
13241;BME280;6687;47.790;7.322;2022-07-29T10:00:50;98864.63;;;31.42;31.68
13241;BME280;6687;47.790;7.322;2022-07-29T10:03:19;98862.63;;;31.65;29.94
13241;BME280;6687;47.790;7.322;2022-07-29T10:06:04;98862.91;;;30.99;32.41
13241;BME280;6687;47.790;7.322;2022-07-29T10:08:31;98862.41;;;31.47;31.56
13241;BME280;6687;47.790;7.322;2022-07-29T10:11:09;98856.63;;;31.73;30.58
13241;BME280;6687;47.790;7.322;2022-07-29T10:13:36;98852.75;;;31.97;30.39
13241;BME280;6687;47.790;7.322;2022-07-29T10:16:03;98845.06;;;32.13;30.33
13241;BME280;6687;47.790;7.322;2022-07-29T10:18:32;98854.84;;;32.24;30.00
13241;BME280;6687;47.790;7.322;2022-07-29T10:20:59;98845.56;;;32.38;29.41
13241;BME280;6687;47.790;7.322;2022-07-29T10:23:27;98850.41;;;32.73;29.24
13241;BME280;6687;47.790;7.322;2022-07-29T10:25:54;98845.81;;;32.35;29.62
13241;BME280;6687;47.790;7.322;2022-07-29T10:28:21;98852.22;;;32.53;29.78
13241;BME280;6687;47.790;7.322;2022-07-29T10:30:50;98850.09;;;32.57;29.99
13241;BME280;6687;47.790;7.322;2022-07-29T10:33:35;98852.22;;;32.73;29.84
13241;BME280;6687;47.790;7.322;2022-07-29T10:36:22;98855.47;;;33.05;29.35
13241;BME280;6687;47.790;7.322;2022-07-29T10:38:55;98864.53;;;33.24;28.46
13241;BME280;6687;47.790;7.322;2022-07-29T10:41:39;98857.13;;;33.45;28.19
13241;BME280;6687;47.790;7.322;2022-07-29T10:44:15;98864.25;;;33.27;27.83
13241;BME280;6687;47.790;7.322;2022-07-29T10:46:43;98868.19;;;33.33;28.10
13241;BME280;6687;47.790;7.322;2022-07-29T10:49:13;98872.69;;;33.32;28.08
13241;BME280;6687;47.790;7.322;2022-07-29T10:51:58;98867.47;;;33.31;27.85
13241;BME280;6687;47.790;7.322;2022-07-29T10:54:37;98868.22;;;33.23;27.81
13241;BME280;6687;47.790;7.322;2022-07-29T10:57:22;98875.56;;;33.01;27.87
13241;BME280;6687;47.790;7.322;2022-07-29T11:02:51;98866.66;;;32.02;29.16
13241;BME280;6687;47.790;7.322;2022-07-29T11:05:21;98873.56;;;32.64;28.69
13241;BME280;6687;47.790;7.322;2022-07-29T11:08:22;98865.28;;;31.86;29.44
13241;BME280;6687;47.790;7.322;2022-07-29T11:10:52;98867.34;;;32.04;29.12
13241;BME280;6687;47.790;7.322;2022-07-29T11:13:45;98868.59;;;32.00;29.49
13241;BME280;6687;47.790;7.322;2022-07-29T11:16:13;98865.31;;;32.37;28.95
13241;BME280;6687;47.790;7.322;2022-07-29T11:21:42;98863.03;;;32.32;29.24
13241;BME280;6687;47.790;7.322;2022-07-29T11:24:12;98862.78;;;32.35;29.06
13241;BME280;6687;47.790;7.322;2022-07-29T11:26:40;98865.84;;;32.21;28.92
13241;BME280;6687;47.790;7.322;2022-07-29T11:29:16;98867.38;;;32.14;29.37
13241;BME280;6687;47.790;7.322;2022-07-29T11:31:46;98869.38;;;31.39;31.63
13241;BME280;6687;47.790;7.322;2022-07-29T11:34:20;98867.50;;;31.81;29.99
13241;BME280;6687;47.790;7.322;2022-07-29T11:37:20;98863.13;;;31.28;31.10
13241;BME280;6687;47.790;7.322;2022-07-29T11:42:40;98873.13;;;31.47;30.66
13241;BME280;6687;47.790;7.322;2022-07-29T11:45:09;98868.69;;;31.58;30.66
13241;BME280;6687;47.790;7.322;2022-07-29T11:47:37;98870.13;;;31.62;30.17
13241;BME280;6687;47.790;7.322;2022-07-29T11:50:07;98871.25;;;31.69;30.22
13241;BME280;6687;47.790;7.322;2022-07-29T11:52:37;98872.16;;;31.48;30.60
13241;BME280;6687;47.790;7.322;2022-07-29T11:55:09;98884.66;;;31.27;31.04
13241;BME280;6687;47.790;7.322;2022-07-29T11:57:44;98874.84;;;31.48;30.28
13241;BME280;6687;47.790;7.322;2022-07-29T12:00:12;98883.28;;;31.11;31.14
13241;BME280;6687;47.790;7.322;2022-07-29T12:02:46;98884.09;;;31.44;30.55
13241;BME280;6687;47.790;7.322;2022-07-29T12:05:13;98878.00;;;31.21;30.58
13241;BME280;6687;47.790;7.322;2022-07-29T12:07:41;98878.31;;;30.86;31.45
13241;BME280;6687;47.790;7.322;2022-07-29T12:10:08;98882.13;;;31.04;30.69
13241;BME280;6687;47.790;7.322;2022-07-29T12:12:35;98883.91;;;31.36;30.29
13241;BME280;6687;47.790;7.322;2022-07-29T12:15:14;98885.56;;;30.95;30.81
13241;BME280;6687;47.790;7.322;2022-07-29T12:17:42;98886.63;;;31.04;30.83
13241;BME280;6687;47.790;7.322;2022-07-29T12:20:09;98887.28;;;30.85;31.08
13241;BME280;6687;47.790;7.322;2022-07-29T12:22:39;98893.19;;;30.67;31.12
13241;BME280;6687;47.790;7.322;2022-07-29T12:25:10;98883.72;;;30.63;31.10
13241;BME280;6687;47.790;7.322;2022-07-29T12:27:37;98892.81;;;30.72;30.45
13241;BME280;6687;47.790;7.322;2022-07-29T12:30:06;98890.19;;;30.93;29.93
13241;BME280;6687;47.790;7.322;2022-07-29T12:32:34;98887.13;;;30.65;30.74
13241;BME280;6687;47.790;7.322;2022-07-29T12:35:05;98885.63;;;30.72;30.51
13241;BME280;6687;47.790;7.322;2022-07-29T12:37:33;98886.69;;;30.92;30.11
13241;BME280;6687;47.790;7.322;2022-07-29T12:40:01;98884.00;;;30.92;30.17
13241;BME280;6687;47.790;7.322;2022-07-29T12:42:29;98886.09;;;30.78;29.98
13241;BME280;6687;47.790;7.322;2022-07-29T12:44:56;98881.66;;;30.56;30.71
13241;BME280;6687;47.790;7.322;2022-07-29T12:47:23;98885.44;;;30.85;30.19
13241;BME280;6687;47.790;7.322;2022-07-29T12:49:52;98881.16;;;30.62;29.87
13241;BME280;6687;47.790;7.322;2022-07-29T12:52:34;98880.81;;;30.55;30.44
13241;BME280;6687;47.790;7.322;2022-07-29T12:55:01;98885.44;;;30.64;30.23
13241;BME280;6687;47.790;7.322;2022-07-29T12:57:29;98885.78;;;30.60;30.08
13241;BME280;6687;47.790;7.322;2022-07-29T13:00:02;98888.75;;;30.78;30.19
13241;BME280;6687;47.790;7.322;2022-07-29T13:02:30;98891.72;;;30.75;30.17
13241;BME280;6687;47.790;7.322;2022-07-29T13:04:58;98883.94;;;30.71;29.68
13241;BME280;6687;47.790;7.322;2022-07-29T13:07:26;98881.59;;;30.78;29.97
13241;BME280;6687;47.790;7.322;2022-07-29T13:09:58;98893.47;;;30.85;29.88
13241;BME280;6687;47.790;7.322;2022-07-29T13:12:37;98893.78;;;31.03;29.76
13241;BME280;6687;47.790;7.322;2022-07-29T13:15:12;98898.19;;;31.04;29.49
13241;BME280;6687;47.790;7.322;2022-07-29T13:17:40;98899.63;;;31.08;29.72
13241;BME280;6687;47.790;7.322;2022-07-29T13:20:10;98894.94;;;30.89;29.72
13241;BME280;6687;47.790;7.322;2022-07-29T13:22:39;98893.78;;;31.03;29.46
13241;BME280;6687;47.790;7.322;2022-07-29T13:25:08;98894.78;;;31.44;29.04
13241;BME280;6687;47.790;7.322;2022-07-29T13:27:38;98895.72;;;31.12;29.45
13241;BME280;6687;47.790;7.322;2022-07-29T13:30:07;98896.56;;;31.13;29.58
13241;BME280;6687;47.790;7.322;2022-07-29T13:32:35;98898.25;;;31.14;29.64
13241;BME280;6687;47.790;7.322;2022-07-29T13:35:04;98895.72;;;31.12;29.34
13241;BME280;6687;47.790;7.322;2022-07-29T13:37:32;98895.94;;;31.09;29.23
13241;BME280;6687;47.790;7.322;2022-07-29T13:40:00;98899.09;;;31.15;29.43
13241;BME280;6687;47.790;7.322;2022-07-29T13:42:28;98895.59;;;31.14;29.33
13241;BME280;6687;47.790;7.322;2022-07-29T13:44:56;98898.19;;;31.04;29.62
13241;BME280;6687;47.790;7.322;2022-07-29T13:47:23;98895.00;;;31.10;29.38
13241;BME280;6687;47.790;7.322;2022-07-29T13:49:50;98892.34;;;30.99;29.51
13241;BME280;6687;47.790;7.322;2022-07-29T13:52:18;98892.97;;;31.24;29.22
13241;BME280;6687;47.790;7.322;2022-07-29T13:54:45;98885.25;;;31.09;29.50
13241;BME280;6687;47.790;7.322;2022-07-29T13:57:12;98891.28;;;31.23;29.03
13241;BME280;6687;47.790;7.322;2022-07-29T13:59:39;98894.41;;;31.28;28.76
13241;BME280;6687;47.790;7.322;2022-07-29T14:02:10;98889.69;;;30.99;29.12
13241;BME280;6687;47.790;7.322;2022-07-29T14:04:37;98882.56;;;31.09;29.15
13241;BME280;6687;47.790;7.322;2022-07-29T14:07:05;98886.94;;;31.31;29.04
13241;BME280;6687;47.790;7.322;2022-07-29T14:09:31;98880.44;;;31.45;28.95
13241;BME280;6687;47.790;7.322;2022-07-29T14:11:58;98878.59;;;31.67;28.57
13241;BME280;6687;47.790;7.322;2022-07-29T14:14:25;98882.63;;;31.51;28.89
13241;BME280;6687;47.790;7.322;2022-07-29T14:16:51;98882.16;;;31.46;28.22
13241;BME280;6687;47.790;7.322;2022-07-29T14:19:19;98875.47;;;31.62;28.01
13241;BME280;6687;47.790;7.322;2022-07-29T14:21:46;98880.31;;;31.68;28.66
13241;BME280;6687;47.790;7.322;2022-07-29T14:24:13;98873.34;;;31.56;28.58
13241;BME280;6687;47.790;7.322;2022-07-29T14:26:39;98878.81;;;31.54;28.56
13241;BME280;6687;47.790;7.322;2022-07-29T14:29:06;98877.16;;;31.63;26.60
13241;BME280;6687;47.790;7.322;2022-07-29T14:31:33;98882.47;;;31.53;26.83
13241;BME280;6687;47.790;7.322;2022-07-29T14:34:00;98879.81;;;31.84;26.92
13241;BME280;6687;47.790;7.322;2022-07-29T14:36:28;98881.72;;;31.72;28.37
13241;BME280;6687;47.790;7.322;2022-07-29T14:38:54;98885.13;;;31.74;27.94
13241;BME280;6687;47.790;7.322;2022-07-29T14:41:21;98890.25;;;31.87;27.80
13241;BME280;6687;47.790;7.322;2022-07-29T14:43:48;98891.53;;;31.92;27.44
13241;BME280;6687;47.790;7.322;2022-07-29T14:46:14;98881.72;;;31.72;27.94
13241;BME280;6687;47.790;7.322;2022-07-29T14:48:41;98888.44;;;31.87;27.69
13241;BME280;6687;47.790;7.322;2022-07-29T14:51:08;98891.00;;;31.99;27.49
13241;BME280;6687;47.790;7.322;2022-07-29T14:53:37;98889.16;;;31.89;27.25
13241;BME280;6687;47.790;7.322;2022-07-29T14:56:04;98889.50;;;32.06;27.15
13241;BME280;6687;47.790;7.322;2022-07-29T14:58:30;98895.84;;;31.74;27.62
13241;BME280;6687;47.790;7.322;2022-07-29T15:00:57;98893.22;;;31.63;27.47
13241;BME280;6687;47.790;7.322;2022-07-29T15:03:24;98894.22;;;31.92;27.13
13241;BME280;6687;47.790;7.322;2022-07-29T15:05:51;98886.72;;;32.27;27.01
13241;BME280;6687;47.790;7.322;2022-07-29T15:08:17;98891.88;;;32.49;26.91
13241;BME280;6687;47.790;7.322;2022-07-29T15:10:46;98884.78;;;32.39;26.17
13241;BME280;6687;47.790;7.322;2022-07-29T15:13:12;98885.09;;;32.45;26.50
13241;BME280;6687;47.790;7.322;2022-07-29T15:15:39;98891.88;;;32.40;26.63
13241;BME280;6687;47.790;7.322;2022-07-29T15:18:06;98879.78;;;32.94;26.33
13241;BME280;6687;47.790;7.322;2022-07-29T15:20:34;98886.28;;;32.82;25.96
13241;BME280;6687;47.790;7.322;2022-07-29T15:23:01;98886.03;;;32.85;26.23
13241;BME280;6687;47.790;7.322;2022-07-29T15:25:27;98888.41;;;32.88;26.56
13241;BME280;6687;47.790;7.322;2022-07-29T15:27:56;98878.50;;;32.98;26.23
13241;BME280;6687;47.790;7.322;2022-07-29T15:30:25;98870.00;;;33.32;25.83
13241;BME280;6687;47.790;7.322;2022-07-29T15:32:51;98867.69;;;33.94;24.34
13241;BME280;6687;47.790;7.322;2022-07-29T15:35:18;98866.38;;;34.08;24.80
13241;BME280;6687;47.790;7.322;2022-07-29T15:37:45;98873.19;;;34.30;24.15
13241;BME280;6687;47.790;7.322;2022-07-29T15:40:12;98868.69;;;34.31;24.72
13241;BME280;6687;47.790;7.322;2022-07-29T15:42:38;98863.03;;;34.70;24.02
13241;BME280;6687;47.790;7.322;2022-07-29T15:45:07;98857.63;;;35.05;23.00
13241;BME280;6687;47.790;7.322;2022-07-29T15:47:34;98854.06;;;34.79;23.61
13241;BME280;6687;47.790;7.322;2022-07-29T15:50:02;98858.72;;;35.13;23.34
13241;BME280;6687;47.790;7.322;2022-07-29T15:52:28;98847.22;;;34.84;23.66
13241;BME280;6687;47.790;7.322;2022-07-29T15:54:56;98846.94;;;34.96;23.90
13241;BME280;6687;47.790;7.322;2022-07-29T15:57:23;98862.88;;;35.25;23.15
13241;BME280;6687;47.790;7.322;2022-07-29T15:59:50;98851.31;;;35.15;22.79
13241;BME280;6687;47.790;7.322;2022-07-29T16:02:18;98846.25;;;35.30;22.81
13241;BME280;6687;47.790;7.322;2022-07-29T16:04:45;98850.41;;;35.76;21.68
13241;BME280;6687;47.790;7.322;2022-07-29T16:07:12;98854.63;;;35.53;22.79
13241;BME280;6687;47.790;7.322;2022-07-29T16:09:38;98847.41;;;35.09;22.97
13241;BME280;6687;47.790;7.322;2022-07-29T16:12:05;98845.84;;;35.77;22.42
13241;BME280;6687;47.790;7.322;2022-07-29T16:14:33;98835.59;;;35.80;21.75
13241;BME280;6687;47.790;7.322;2022-07-29T16:16:59;98838.03;;;36.00;22.42
13241;BME280;6687;47.790;7.322;2022-07-29T16:19:29;98837.72;;;36.11;22.45
13241;BME280;6687;47.790;7.322;2022-07-29T16:21:55;98831.13;;;35.97;21.91
13241;BME280;6687;47.790;7.322;2022-07-29T16:24:22;98834.34;;;35.67;21.95
13241;BME280;6687;47.790;7.322;2022-07-29T16:26:54;98829.09;;;35.99;21.24
13241;BME280;6687;47.790;7.322;2022-07-29T16:29:20;98829.22;;;35.90;22.70
13241;BME280;6687;47.790;7.322;2022-07-29T16:31:47;98829.47;;;35.44;22.91
13241;BME280;6687;47.790;7.322;2022-07-29T16:34:14;98825.63;;;35.81;21.89
13241;BME280;6687;47.790;7.322;2022-07-29T16:36:42;98832.06;;;36.31;22.09
13241;BME280;6687;47.790;7.322;2022-07-29T16:39:08;98830.00;;;36.16;21.96
13241;BME280;6687;47.790;7.322;2022-07-29T16:41:37;98824.59;;;35.74;22.32
13241;BME280;6687;47.790;7.322;2022-07-29T16:44:04;98822.28;;;35.53;22.20
13241;BME280;6687;47.790;7.322;2022-07-29T16:46:30;98817.19;;;35.76;22.19
13241;BME280;6687;47.790;7.322;2022-07-29T16:49:01;98821.75;;;35.49;22.75
13241;BME280;6687;47.790;7.322;2022-07-29T16:51:28;98820.72;;;35.42;22.34
13241;BME280;6687;47.790;7.322;2022-07-29T16:53:56;98809.81;;;35.52;22.11
13241;BME280;6687;47.790;7.322;2022-07-29T16:56:23;98819.28;;;35.56;22.04
13241;BME280;6687;47.790;7.322;2022-07-29T16:58:50;98815.78;;;34.93;22.89
13241;BME280;6687;47.790;7.322;2022-07-29T17:01:18;98809.25;;;34.96;22.57
13241;BME280;6687;47.790;7.322;2022-07-29T17:03:44;98807.06;;;35.17;22.75
13241;BME280;6687;47.790;7.322;2022-07-29T17:06:28;98815.75;;;34.67;22.37
13241;BME280;6687;47.790;7.322;2022-07-29T17:08:58;98816.22;;;34.80;23.04
13241;BME280;6687;47.790;7.322;2022-07-29T17:11:25;98824.19;;;34.08;22.39
13241;BME280;6687;47.790;7.322;2022-07-29T17:13:51;98820.56;;;34.27;22.84
13241;BME280;6687;47.790;7.322;2022-07-29T17:16:18;98827.03;;;34.07;22.91
13241;BME280;6687;47.790;7.322;2022-07-29T17:18:49;98823.34;;;33.80;23.13
13241;BME280;6687;47.790;7.322;2022-07-29T17:21:16;98822.97;;;34.03;23.22
13241;BME280;6687;47.790;7.322;2022-07-29T17:23:42;98824.53;;;33.68;21.51
13241;BME280;6687;47.790;7.322;2022-07-29T17:26:11;98832.88;;;34.02;22.25
13241;BME280;6687;47.790;7.322;2022-07-29T17:28:37;98830.28;;;34.11;22.28
13241;BME280;6687;47.790;7.322;2022-07-29T17:31:04;98830.97;;;33.85;20.54
13241;BME280;6687;47.790;7.322;2022-07-29T17:33:31;98834.00;;;33.72;22.70
13241;BME280;6687;47.790;7.322;2022-07-29T17:35:58;98835.59;;;33.65;22.98
13241;BME280;6687;47.790;7.322;2022-07-29T17:38:42;98838.44;;;33.54;22.72
13241;BME280;6687;47.790;7.322;2022-07-29T17:41:11;98834.75;;;33.55;21.37
13241;BME280;6687;47.790;7.322;2022-07-29T17:43:37;98830.31;;;33.73;23.22
13241;BME280;6687;47.790;7.322;2022-07-29T17:46:04;98825.09;;;33.72;21.65
13241;BME280;6687;47.790;7.322;2022-07-29T17:48:32;98830.44;;;33.81;22.50
13241;BME280;6687;47.790;7.322;2022-07-29T17:50:58;98827.09;;;33.70;22.67
13241;BME280;6687;47.790;7.322;2022-07-29T17:53:25;98838.75;;;33.51;20.89
13241;BME280;6687;47.790;7.322;2022-07-29T17:55:52;98840.66;;;33.58;20.51
13241;BME280;6687;47.790;7.322;2022-07-29T17:58:21;98847.22;;;33.46;20.54
13241;BME280;6687;47.790;7.322;2022-07-29T18:00:48;98841.81;;;33.56;20.32
13241;BME280;6687;47.790;7.322;2022-07-29T18:03:15;98851.22;;;33.32;20.18
13241;BME280;6687;47.790;7.322;2022-07-29T18:05:42;98845.88;;;33.03;20.23
13241;BME280;6687;47.790;7.322;2022-07-29T18:08:09;98850.97;;;32.96;20.15
13241;BME280;6687;47.790;7.322;2022-07-29T18:10:36;98847.88;;;32.91;20.69
13241;BME280;6687;47.790;7.322;2022-07-29T18:13:03;98846.28;;;32.98;20.62
13241;BME280;6687;47.790;7.322;2022-07-29T18:15:31;98853.22;;;33.11;20.65
13241;BME280;6687;47.790;7.322;2022-07-29T18:17:58;98855.50;;;32.96;20.89
13241;BME280;6687;47.790;7.322;2022-07-29T18:20:25;98856.31;;;32.47;21.53
13241;BME280;6687;47.790;7.322;2022-07-29T18:22:52;98864.47;;;32.36;22.00
13241;BME280;6687;47.790;7.322;2022-07-29T18:25:19;98855.81;;;32.23;22.05
13241;BME280;6687;47.790;7.322;2022-07-29T18:27:46;98861.19;;;31.82;22.70
13241;BME280;6687;47.790;7.322;2022-07-29T18:30:13;98865.38;;;31.75;22.71
13241;BME280;6687;47.790;7.322;2022-07-29T18:32:41;98871.81;;;31.63;22.82
13241;BME280;6687;47.790;7.322;2022-07-29T18:35:08;98879.31;;;31.69;23.12
13241;BME280;6687;47.790;7.322;2022-07-29T18:37:35;98871.91;;;31.82;22.93
13241;BME280;6687;47.790;7.322;2022-07-29T18:40:03;98878.22;;;31.50;23.22
13241;BME280;6687;47.790;7.322;2022-07-29T18:42:30;98879.09;;;30.98;23.47